Time;durP1;ratioP1;P1;durP2;ratioP2;P2;SDS_P1;SDS_P2;PMS_P1;PMS_P2;Temp;Humidity;BMP_temperature;BMP_pressure;BME280_temperature;BME280_humidity;BME280_pressure;Samples;Min_cycle;Max_cycle;Signal;HPM_P1;HPM_P2
2021/10/26 00:01:43;;;;;;;10.30;4.63;;;;;;;4.62;65.48;93184.19;2045413;70;20150;-73
2021/10/26 00:04:08;;;;;;;11.07;5.20;;;;;;;4.54;66.62;93187.03;2045102;70;20198;-75
2021/10/26 00:06:35;;;;;;;9.27;4.72;;;;;;;4.58;65.89;93187.38;2045364;70;20274;-71
2021/10/26 00:09:02;;;;;;;9.50;5.30;;;;;;;4.66;65.64;93189.41;2045193;70;20151;-74
2021/10/26 00:11:29;;;;;;;8.68;4.60;;;;;;;4.71;66.23;93189.19;2045119;70;20189;-76
2021/10/26 00:13:55;;;;;;;11.45;4.90;;;;;;;4.79;65.32;93192.72;2044904;70;20143;-73
2021/10/26 00:16:21;;;;;;;9.98;4.43;;;;;;;4.80;65.00;93190.66;2045009;70;20177;-73
2021/10/26 00:18:47;;;;;;;11.15;5.60;;;;;;;4.42;67.06;93185.91;2044925;70;20609;-73
2021/10/26 00:21:13;;;;;;;8.07;4.85;;;;;;;4.58;66.39;93192.19;2044610;70;20163;-74
2021/10/26 00:23:39;;;;;;;9.48;4.68;;;;;;;4.49;66.13;93189.97;2045123;70;20234;-76
2021/10/26 00:26:05;;;;;;;9.95;4.63;;;;;;;4.52;65.62;93191.66;2045285;70;20139;-73
2021/10/26 00:28:34;;;;;;;9.23;4.75;;;;;;;4.52;65.80;93189.59;2045212;70;20214;-74
2021/10/26 00:31:01;;;;;;;9.20;4.82;;;;;;;4.66;64.74;93190.16;2042097;70;20163;-73
2021/10/26 00:33:28;;;;;;;10.63;5.28;;;;;;;4.18;67.82;93194.84;2044650;70;20169;-79
2021/10/26 00:35:54;;;;;;;11.00;5.38;;;;;;;4.34;66.45;93199.09;2045144;70;20178;-75
2021/10/26 00:38:21;;;;;;;11.55;5.50;;;;;;;4.42;66.49;93199.84;2045087;70;20254;-73
2021/10/26 00:40:48;;;;;;;10.77;5.43;;;;;;;4.53;65.29;93196.66;2045113;70;20587;-74
2021/10/26 00:43:14;;;;;;;10.02;4.85;;;;;;;4.28;67.75;93209.72;2045140;70;20158;-77
2021/10/26 00:45:40;;;;;;;11.52;5.60;;;;;;;4.08;68.44;93211.38;2044710;70;20207;-76
2021/10/26 00:48:07;;;;;;;9.20;5.43;;;;;;;4.29;67.01;93211.94;2044813;70;20171;-73
2021/10/26 00:50:33;;;;;;;7.53;4.60;;;;;;;4.28;66.54;93212.50;2045038;70;20174;-75
2021/10/26 00:52:59;;;;;;;9.60;5.20;;;;;;;4.37;66.32;93211.19;2044706;70;20243;-75
2021/10/26 00:55:25;;;;;;;8.68;5.07;;;;;;;4.37;66.21;93209.16;2045198;70;20147;-79
2021/10/26 00:57:51;;;;;;;8.38;4.63;;;;;;;4.40;65.75;93224.00;2045405;70;20209;-73
2021/10/26 01:00:19;;;;;;;8.80;4.90;;;;;;;4.34;66.86;93222.16;2044559;70;20234;-72
2021/10/26 01:02:48;;;;;;;8.32;4.80;;;;;;;4.29;67.04;93225.13;2045973;70;20163;-76
2021/10/26 01:05:26;;;;;;;8.77;4.43;;;;;;;4.33;66.32;93223.44;2045054;70;20165;-78
2021/10/26 01:07:53;;;;;;;9.65;5.03;;;;;;;4.18;66.74;93220.69;2044449;70;20214;-73
2021/10/26 01:10:19;;;;;;;12.15;5.10;;;;;;;3.97;67.30;93225.66;2044501;70;20135;-75
2021/10/26 01:12:46;;;;;;;9.68;5.10;;;;;;;4.15;66.88;93221.78;2039067;70;20150;-80
2021/10/26 01:15:12;;;;;;;8.25;5.18;;;;;;;4.20;65.68;93218.06;2044636;70;20158;-80
2021/10/26 01:17:38;;;;;;;8.48;4.10;;;;;;;4.20;66.35;93225.69;2044719;70;20163;-79
2021/10/26 01:20:07;;;;;;;9.93;4.50;;;;;;;4.22;65.99;93221.06;2044468;70;20533;-75
2021/10/26 01:22:39;;;;;;;6.10;4.22;;;;;;;4.16;65.95;93219.72;2044384;70;20159;-74
2021/10/26 01:25:13;;;;;;;;;;;;;;;4.31;65.06;93222.53;2044772;70;20548;-72
2021/10/26 01:27:53;;;;;;;8.93;4.30;;;;;;;4.34;64.21;93222.16;2044557;70;20170;-72
2021/10/26 01:30:28;;;;;;;10.80;4.72;;;;;;;4.25;65.78;93219.91;2044430;70;20170;-72
2021/10/26 01:33:06;;;;;;;8.10;4.70;;;;;;;4.16;65.86;93228.84;2044415;70;20177;-76
2021/10/26 01:35:53;;;;;;;7.53;4.50;;;;;;;4.07;66.87;93223.81;2041222;70;20154;-73
2021/10/26 01:38:24;;;;;;;9.55;4.70;;;;;;;4.08;66.00;93219.75;2044776;70;20151;-74
2021/10/26 01:40:50;;;;;;;7.55;4.28;;;;;;;3.86;67.63;93218.41;2044383;70;20147;-72
2021/10/26 01:43:16;;;;;;;7.65;4.03;;;;;;;3.93;65.99;93216.94;2044349;70;20253;-71
2021/10/26 01:45:41;;;;;;;8.13;4.20;;;;;;;3.85;67.14;93224.53;2044520;70;20144;-74
2021/10/26 01:48:21;;;;;;;7.57;4.28;;;;;;;3.91;66.26;93220.28;2041727;70;20174;-73
2021/10/26 01:50:46;;;;;;;5.57;3.88;;;;;;;3.82;66.05;93224.34;2044410;70;20162;-72
2021/10/26 01:53:13;;;;;;;8.27;4.20;;;;;;;3.98;65.26;93225.09;2044239;70;20167;-72
2021/10/26 01:55:44;;;;;;;9.20;3.92;;;;;;;3.90;66.39;93215.28;2044420;70;20158;-72
2021/10/26 01:58:10;;;;;;;7.35;4.13;;;;;;;3.83;65.95;93213.94;2044553;70;20170;-73
2021/10/26 02:01:11;;;;;;;7.63;3.72;;;;;;;3.98;65.52;93213.97;2043475;70;20151;-71
2021/10/26 02:03:37;;;;;;;6.90;4.18;;;;;;;3.83;65.56;93213.94;2044600;70;20147;-72
2021/10/26 02:06:04;;;;;;;6.95;3.83;;;;;;;3.86;65.35;93224.00;2044847;70;20151;-75
2021/10/26 02:08:30;;;;;;;6.70;3.80;;;;;;;3.86;65.92;93218.41;2045381;70;20140;-75
2021/10/26 02:10:56;;;;;;;5.28;3.95;;;;;;;3.98;63.99;93227.16;2044747;70;20234;-72
2021/10/26 02:13:24;;;;;;;6.97;3.70;;;;;;;3.90;65.26;93218.06;2044878;70;20174;-72
2021/10/26 02:15:53;;;;;;;8.45;4.20;;;;;;;3.83;65.96;93223.03;2042060;70;20210;-75
2021/10/26 02:18:19;;;;;;;5.30;3.28;;;;;;;4.01;64.08;93221.22;2046272;70;20598;-77
2021/10/26 02:20:46;;;;;;;4.97;3.25;;;;;;;3.83;65.11;93213.94;2045154;70;20177;-76
2021/10/26 02:23:12;;;;;;;6.03;3.58;;;;;;;3.88;65.31;93217.84;2045499;70;20146;-75
2021/10/26 02:25:38;;;;;;;6.45;3.70;;;;;;;3.89;66.61;93222.84;2042341;70;20139;-76
2021/10/26 02:28:04;;;;;;;10.95;3.75;;;;;;;3.92;65.71;93218.22;2045186;70;20158;-77
2021/10/26 02:30:30;;;;;;;5.70;3.40;;;;;;;3.85;66.14;93221.75;2045030;70;20598;-75
2021/10/26 02:32:55;;;;;;;8.38;3.85;;;;;;;3.62;67.25;93230.03;2042214;70;20195;-77
2021/10/26 02:35:21;;;;;;;6.10;3.70;;;;;;;3.61;66.62;93234.88;2045576;70;20230;-75
2021/10/26 02:37:46;;;;;;;9.88;3.80;;;;;;;3.62;66.05;93236.38;2045011;70;20143;-76
2021/10/26 02:40:13;;;;;;;8.65;4.28;;;;;;;3.35;67.43;93232.41;2044951;70;20214;-79
2021/10/26 02:42:38;;;;;;;5.68;3.65;;;;;;;3.44;67.10;93232.63;2044920;70;20165;-73
2021/10/26 02:45:05;;;;;;;8.35;3.97;;;;;;;3.51;65.64;93239.50;2044969;70;20147;-78
2021/10/26 02:47:31;;;;;;;5.97;3.72;;;;;;;3.58;65.44;93241.56;2045599;70;20138;-80
2021/10/26 02:49:56;;;;;;;7.95;3.75;;;;;;;3.42;66.35;93237.22;2045357;70;20158;-74
2021/10/26 02:52:22;;;;;;;9.75;4.20;;;;;;;3.45;66.75;93242.44;2044986;70;20151;-73
2021/10/26 02:54:48;;;;;;;7.00;3.80;;;;;;;3.51;66.55;93245.06;2044970;70;20617;-78
2021/10/26 02:57:14;;;;;;;6.72;3.63;;;;;;;3.40;66.19;93250.97;2045008;70;20214;-77
2021/10/26 02:59:40;;;;;;;7.15;3.72;;;;;;;3.55;66.87;93245.44;2044953;70;20139;-81
2021/10/26 03:02:06;;;;;;;8.90;3.58;;;;;;;3.52;66.45;93247.28;2045467;70;20289;-76
2021/10/26 03:04:32;;;;;;;8.52;3.90;;;;;;;3.29;68.82;93244.41;2044846;70;20166;-74
2021/10/26 03:06:57;;;;;;;6.65;3.85;;;;;;;3.36;67.94;93245.75;2042245;70;20594;-75
2021/10/26 03:09:24;;;;;;;7.10;3.47;;;;;;;3.35;67.62;93246.31;2044841;70;20621;-74
2021/10/26 03:11:50;;;;;;;5.85;3.47;;;;;;;3.33;67.68;93249.63;2045564;70;20155;-76
2021/10/26 03:14:17;;;;;;;5.55;3.33;;;;;;;3.39;66.52;93246.69;2044967;70;20155;-74
2021/10/26 03:16:44;;;;;;;10.38;3.97;;;;;;;3.11;68.12;93255.84;2045425;70;20171;-78
2021/10/26 03:19:10;;;;;;;7.88;4.50;;;;;;;3.06;68.68;93265.81;2044829;70;20625;-72
2021/10/26 03:21:38;;;;;;;6.43;3.72;;;;;;;2.98;69.20;93260.25;2044917;70;20138;-76
2021/10/26 03:24:05;;;;;;;6.40;3.88;;;;;;;3.16;67.34;93266.06;2045500;70;20239;-75
2021/10/26 03:26:32;;;;;;;8.18;3.90;;;;;;;3.17;66.81;93257.19;2044912;70;20135;-78
2021/10/26 03:28:57;;;;;;;7.65;3.90;;;;;;;3.20;67.10;93253.28;2042148;70;20143;-72
2021/10/26 03:31:23;;;;;;;5.97;4.00;;;;;;;3.25;66.08;93263.53;2044926;70;20158;-78
2021/10/26 03:34:04;;;;;;;6.65;3.70;;;;;;;3.22;67.53;93264.63;2045470;70;20151;-79
2021/10/26 03:36:30;;;;;;;9.82;3.83;;;;;;;3.05;66.78;93256.75;2042107;70;20192;-75
2021/10/26 03:38:55;;;;;;;7.15;3.72;;;;;;;3.10;67.52;93254.34;2044841;70;20173;-79
2021/10/26 03:41:21;;;;;;;6.90;3.83;;;;;;;3.16;67.12;93258.47;2044878;70;20154;-80
2021/10/26 03:43:47;;;;;;;6.47;3.80;;;;;;;3.16;66.52;93274.41;2044872;70;20345;-76
2021/10/26 03:46:15;;;;;;;6.75;4.10;;;;;;;3.11;66.19;93273.28;2044905;70;20234;-76
2021/10/26 03:48:43;;;;;;;7.00;3.97;;;;;;;3.00;66.89;93271.56;2044605;70;20546;-76
2021/10/26 03:51:11;;;;;;;9.55;3.83;;;;;;;2.97;67.74;93278.19;2044838;70;20151;-79
2021/10/26 03:53:38;;;;;;;7.75;4.22;;;;;;;2.97;66.83;93280.25;2045529;70;20162;-77
2021/10/26 03:56:06;;;;;;;10.27;4.50;;;;;;;2.89;67.63;93287.81;2044924;70;20305;-76
2021/10/26 03:58:34;;;;;;;7.28;4.22;;;;;;;2.96;67.76;93285.06;2045024;70;20150;-78
2021/10/26 04:01:15;;;;;;;5.68;3.90;;;;;;;2.93;67.72;93291.75;2045323;70;20182;-73
2021/10/26 04:03:41;;;;;;;6.78;4.07;;;;;;;2.88;67.75;93291.88;2046264;70;20249;-74
2021/10/26 04:06:09;;;;;;;6.45;3.85;;;;;;;2.92;68.15;93286.69;2047217;70;20190;-74
2021/10/26 04:11:23;;;;;;;6.28;3.70;;;;;;;2.86;67.67;93295.19;2044865;70;20194;-77
2021/10/26 04:13:53;;;;;;;6.70;3.55;;;;;;;2.78;67.60;93303.50;2044831;70;20150;-80
2021/10/26 04:16:20;;;;;;;6.63;3.63;;;;;;;2.82;67.03;93296.84;2045345;70;20224;-75
2021/10/26 04:18:47;;;;;;;5.45;3.65;;;;;;;2.78;67.41;93297.94;2041971;70;20615;-77
2021/10/26 04:21:14;;;;;;;7.68;4.30;;;;;;;2.67;68.10;93303.03;2045366;70;20583;-75
2021/10/26 04:23:50;;;;;;;7.22;3.90;;;;;;;2.78;66.81;93302.75;2044823;70;20175;-73
2021/10/26 04:26:16;;;;;;;6.82;3.63;;;;;;;2.71;67.19;93309.75;2044818;70;20158;-79
2021/10/26 04:28:42;;;;;;;7.78;3.75;;;;;;;2.68;67.78;93304.53;2044791;70;20641;-77
2021/10/26 04:31:09;;;;;;;11.32;6.72;;;;;;;2.61;68.76;93308.75;2044830;70;20645;-79
2021/10/26 04:33:40;;;;;;;8.32;5.10;;;;;;;2.66;68.31;93313.44;2044723;70;20241;-78
2021/10/26 04:36:06;;;;;;;12.25;6.80;;;;;;;2.65;68.04;93311.16;2044806;70;20170;-80
2021/10/26 04:38:32;;;;;;;9.55;5.38;;;;;;;2.65;67.48;93303.56;2045331;70;20189;-77
2021/10/26 04:40:57;;;;;;;10.27;6.45;;;;;;;2.69;67.01;93303.25;2042077;70;20147;-79
2021/10/26 04:43:27;;;;;;;12.38;7.03;;;;;;;2.63;67.72;93302.66;2044765;70;20176;-77
2021/10/26 04:45:54;;;;;;;19.27;7.38;;;;;;;2.66;67.72;93304.34;2044748;70;20222;-79
2021/10/26 04:48:22;;;;;;;14.82;8.80;;;;;;;2.66;68.09;93298.78;2044565;70;20237;-79
2021/10/26 04:50:48;;;;;;;16.67;9.20;;;;;;;2.64;67.18;93309.69;2044786;70;20146;-74
2021/10/26 04:53:14;;;;;;;16.63;9.93;;;;;;;2.39;69.55;93317.66;2044724;70;20155;-78
2021/10/26 04:55:48;;;;;;;18.02;9.93;;;;;;;2.40;69.39;93324.69;2044732;70;20139;-75
2021/10/26 04:58:15;;;;;;;19.45;11.38;;;;;;;2.50;68.07;93320.16;2044847;70;20198;-75
2021/10/26 05:00:42;;;;;;;18.05;10.05;;;;;;;2.43;68.34;93320.81;2044754;70;20168;-77
2021/10/26 05:03:07;;;;;;;18.20;10.05;;;;;;;2.36;67.82;93335.41;2044548;70;20135;-74
2021/10/26 05:05:35;;;;;;;19.60;11.48;;;;;;;2.49;67.89;93330.53;2044715;70;20147;-73
2021/10/26 05:08:02;;;;;;;20.95;12.02;;;;;;;2.41;68.52;93331.75;2044694;70;20154;-76
2021/10/26 05:10:28;;;;;;;9.57;5.70;;;;;;;2.29;69.76;93334.81;2044721;70;20178;-81
2021/10/26 05:12:53;;;;;;;13.65;7.88;;;;;;;2.28;68.61;93338.09;2044809;70;20179;-75
2021/10/26 05:15:38;;;;;;;14.80;8.45;;;;;;;2.23;68.68;93336.22;2044728;70;20145;-77
2021/10/26 05:18:36;;;;;;;15.20;8.90;;;;;;;2.34;68.66;93337.97;2038490;70;20563;-79
2021/10/26 05:21:21;;;;;;;18.90;10.55;;;;;;;2.46;67.40;93337.16;2045017;70;20150;-79
2021/10/26 05:24:10;;;;;;;17.67;9.93;;;;;;;2.37;67.53;93332.06;2039545;70;20200;-75
2021/10/26 05:26:41;;;;;;;20.13;11.90;;;;;;;2.37;68.52;93339.66;2044662;70;20158;-75
2021/10/26 05:29:09;;;;;;;22.17;13.98;;;;;;;2.40;68.04;93342.13;2044697;70;20143;-77
2021/10/26 05:31:36;;;;;;;23.23;14.90;;;;;;;2.35;67.51;93337.44;2044625;70;20147;-75
2021/10/26 05:34:01;;;;;;;26.33;13.98;;;;;;;2.34;69.20;93335.19;2044877;70;20138;-78
2021/10/26 05:36:27;;;;;;;26.92;14.18;;;;;;;2.30;69.13;93341.09;2045721;70;20153;-80
2021/10/26 05:38:53;;;;;;;22.95;13.75;;;;;;;2.33;68.81;93345.56;2045124;70;20226;-82
2021/10/26 05:41:19;;;;;;;22.40;12.68;;;;;;;2.33;68.04;93333.69;2045259;70;20143;-76
2021/10/26 05:43:44;;;;;;;24.05;13.82;;;;;;;2.32;68.71;93337.78;2045692;70;20151;-77
2021/10/26 05:46:10;;;;;;;26.13;14.65;;;;;;;2.35;68.25;93345.78;2045213;70;20143;-78
2021/10/26 05:48:35;;;;;;;23.70;14.50;;;;;;;2.26;69.61;93354.59;2045516;70;20166;-79
2021/10/26 05:51:04;;;;;;;29.58;17.48;;;;;;;2.17;69.35;93357.81;2045664;70;20590;-82
2021/10/26 05:53:31;;;;;;;24.42;14.52;;;;;;;2.33;68.15;93344.81;2045101;70;20143;-80
2021/10/26 05:55:57;;;;;;;22.00;13.40;;;;;;;2.24;68.87;93365.47;2045742;70;20173;-78
2021/10/26 05:58:23;;;;;;;24.98;14.07;;;;;;;2.18;69.05;93356.53;2045138;70;20147;-81
2021/10/26 06:00:48;;;;;;;27.08;16.15;;;;;;;2.17;68.95;93360.59;2045131;70;20515;-81
2021/10/26 06:03:14;;;;;;;31.98;16.88;;;;;;;2.32;68.07;93365.56;2042273;70;20267;-81
2021/10/26 06:05:40;;;;;;;39.33;22.63;;;;;;;2.29;68.44;93370.16;2042382;70;20178;-80
2021/10/26 06:08:07;;;;;;;39.50;16.70;;;;;;;2.09;69.84;93371.63;2045788;70;20167;-78
2021/10/26 06:10:36;;;;;;;37.83;16.70;;;;;;;2.12;69.00;93386.47;2045781;70;20214;-80
2021/10/26 06:13:13;;;;;;;25.17;15.85;;;;;;;2.24;68.05;93385.66;2045190;70;20143;-81
2021/10/26 06:15:39;;;;;;;26.83;16.27;;;;;;;2.17;68.59;93380.78;2045369;70;20155;-81
2021/10/26 06:18:06;;;;;;;26.13;15.80;;;;;;;2.26;68.37;93377.56;2042366;70;20583;-78
2021/10/26 06:20:52;;;;;;;33.67;19.95;;;;;;;2.33;68.05;93390.00;2047984;70;20587;-79
2021/10/26 06:23:18;;;;;;;42.13;25.20;;;;;;;2.25;68.88;93403.84;2048082;70;20304;-81
2021/10/26 06:25:43;;;;;;;43.05;26.23;;;;;;;2.42;68.49;93403.44;2048089;70;20154;-77
2021/10/26 06:28:28;;;;;;;39.13;23.48;;;;;;;2.44;68.25;93412.00;2045302;70;20605;-80
2021/10/26 06:30:54;;;;;;;39.85;24.15;;;;;;;2.41;68.56;93409.56;2048046;70;20166;-82
2021/10/26 06:33:22;;;;;;;40.53;21.95;;;;;;;2.42;69.01;93413.81;2045264;70;20142;-82
2021/10/26 06:35:53;;;;;;;41.92;21.55;;;;;;;2.53;68.40;93410.78;2048055;70;20627;-79
2021/10/26 06:38:21;;;;;;;37.13;22.23;;;;;;;2.54;68.21;93417.84;2048040;70;20238;-83
2021/10/26 06:40:47;;;;;;;36.20;21.05;;;;;;;2.51;68.29;93419.66;2048073;70;20158;-78
2021/10/26 06:43:25;;;;;;;36.97;21.15;;;;;;;2.53;68.72;93421.91;2048189;70;20586;-77
2021/10/26 06:46:19;;;;;;;36.15;21.88;;;;;;;2.56;69.56;93418.03;2047912;70;20222;-77
2021/10/26 06:49:03;;;;;;;39.75;22.80;;;;;;;2.13;71.66;93415.75;2047875;70;20681;-74
2021/10/26 06:51:47;;;;;;;39.78;22.05;;;;;;;2.46;69.70;93419.78;2045647;70;20186;-78
2021/10/26 06:54:45;;;;;;;36.10;20.83;;;;;;;2.59;68.88;93416.97;2044177;70;20700;-79
2021/10/26 06:57:49;;;;;;;46.83;24.73;;;;;;;2.44;70.62;93428.69;2040127;70;20801;-74
2021/10/26 07:00:33;;;;;;;45.08;23.15;;;;;;;2.62;68.51;93438.13;2044998;70;20203;-78
2021/10/26 07:03:22;;;;;;;45.28;25.48;;;;;;;2.67;69.16;93442.06;2041891;70;20605;-76
2021/10/26 07:06:08;;;;;;;45.38;24.30;;;;;;;2.68;68.66;93449.09;2045464;70;20151;-77
2021/10/26 07:08:37;;;;;;;47.17;25.73;;;;;;;2.69;69.08;93445.78;2045523;70;20149;-77
2021/10/26 07:11:41;;;;;;;44.63;24.10;;;;;;;2.79;68.15;93451.59;2041869;70;20254;-81
2021/10/26 07:14:09;;;;;;;42.30;23.02;;;;;;;2.89;67.87;93444.31;2044967;70;20298;-81
2021/10/26 07:16:35;;;;;;;44.78;25.45;;;;;;;2.86;68.46;93450.94;2044980;70;20234;-77
2021/10/26 07:19:01;;;;;;;53.95;30.42;;;;;;;2.88;68.43;93451.13;2045415;70;20180;-75
2021/10/26 07:21:38;;;;;;;60.38;32.03;;;;;;;2.94;68.55;93448.97;2044976;70;20599;-79
2021/10/26 07:24:23;;;;;;;56.67;30.88;;;;;;;2.96;68.48;93451.94;2045471;70;20189;-77
2021/10/26 07:26:52;;;;;;;63.10;32.25;;;;;;;2.94;68.54;93456.59;2044936;70;20155;-81
2021/10/26 07:29:18;;;;;;;64.45;31.73;;;;;;;2.97;68.65;93458.25;2044953;70;20299;-81
2021/10/26 07:31:46;;;;;;;52.83;28.08;;;;;;;2.97;69.05;93449.91;2044922;70;20161;-78
2021/10/26 07:34:13;;;;;;;49.83;25.83;;;;;;;3.09;68.76;93448.34;2044796;70;20269;-78
2021/10/26 07:36:47;;;;;;;49.53;26.17;;;;;;;3.17;69.17;93451.94;2045654;70;20151;-78
2021/10/26 07:39:48;;;;;;;34.90;19.90;;;;;;;3.23;68.72;93458.13;2045399;70;20690;-79
2021/10/26 07:42:05;;;;;;;37.75;21.70;;;;;;;3.11;69.25;93448.53;2044312;70;20218;-77
2021/10/26 07:44:41;;;;;;;48.65;25.50;;;;;;;3.08;69.63;93454.47;2045452;70;20233;-81
2021/10/26 07:47:20;;;;;;;48.45;23.45;;;;;;;3.19;68.30;93452.13;2044863;70;20170;-77
2021/10/26 07:49:51;;;;;;;48.65;27.35;;;;;;;3.23;68.73;93451.81;2045249;70;20752;-80
2021/10/26 07:52:21;;;;;;;48.28;27.08;;;;;;;3.27;68.27;93455.72;2044872;70;20158;-83
2021/10/26 07:54:55;;;;;;;44.45;25.27;;;;;;;3.31;68.36;93460.97;2044866;70;20150;-82
2021/10/26 07:57:24;;;;;;;44.38;25.67;;;;;;;3.37;68.20;93458.03;2044813;70;20523;-75
2021/10/26 07:59:53;;;;;;;46.97;25.88;;;;;;;3.42;67.71;93462.69;2044845;70;20195;-79
2021/10/26 08:02:20;;;;;;;40.05;23.75;;;;;;;3.42;68.04;93465.47;2044849;70;20143;-73
2021/10/26 08:05:21;;;;;;;43.58;23.52;;;;;;;3.52;67.09;93458.88;2034221;70;20587;-76
2021/10/26 08:07:48;;;;;;;47.40;25.48;;;;;;;3.99;66.03;93457.84;2041847;70;20175;-78
2021/10/26 08:10:20;;;;;;;45.55;27.05;;;;;;;4.37;66.04;93459.31;2044795;70;20155;-78
2021/10/26 08:12:47;;;;;;;41.42;23.60;;;;;;;4.82;66.91;93459.44;2044869;70;20140;-79
2021/10/26 08:15:12;;;;;;;30.13;18.65;;;;;;;5.11;68.12;93459.28;2045460;70;20160;-82
2021/10/26 08:17:38;;;;;;;26.92;15.35;;;;;;;5.45;66.84;93453.34;2044856;70;20641;-80
2021/10/26 08:20:04;;;;;;;21.13;12.60;;;;;;;5.91;65.82;93450.47;2044727;70;20162;-78
2021/10/26 08:22:34;;;;;;;21.35;13.40;;;;;;;6.11;65.12;93449.50;2044814;70;20207;-74
2021/10/26 08:25:06;;;;;;;16.95;10.60;;;;;;;6.59;65.85;93443.13;2044903;70;20153;-76
2021/10/26 08:27:32;;;;;;;16.70;9.77;;;;;;;6.79;63.45;93439.31;2044821;70;20147;-80
2021/10/26 08:32:42;;;;;;;19.85;13.15;;;;;;;7.45;61.64;93448.38;2045172;70;20187;-77
2021/10/26 08:38:05;;;;;;;19.83;12.45;;;;;;;8.33;60.82;93447.13;2044866;70;20151;-82
2021/10/26 08:40:37;;;;;;;;;;;;;;;8.58;59.27;93447.78;2045042;70;20151;-79
2021/10/26 08:43:08;;;;;;;17.73;11.15;;;;;;;8.97;59.29;93441.66;2045360;70;20063;-81
2021/10/26 08:45:37;;;;;;;18.33;11.27;;;;;;;9.40;58.24;93443.66;2045212;70;20535;-80
2021/10/26 08:48:06;;;;;;;16.83;11.40;;;;;;;9.35;56.38;93438.31;2044787;70;20154;-77
2021/10/26 08:50:56;;;;;;;18.52;11.00;;;;;;;9.59;56.77;93437.34;2045595;70;20590;-85
2021/10/26 08:53:26;;;;;;;13.18;8.98;;;;;;;10.06;54.22;93445.75;2045037;70;20190;-82
2021/10/26 08:55:59;;;;;;;14.45;8.95;;;;;;;10.68;51.97;93443.28;2045596;70;20181;-79
2021/10/26 08:58:34;;;;;;;12.00;8.35;;;;;;;10.81;50.54;93442.81;2045791;70;20266;-80
2021/10/26 09:01:03;;;;;;;14.20;7.15;;;;;;;10.21;50.43;93437.00;2044830;70;20729;-84
2021/10/26 09:03:36;;;;;;;17.23;8.77;;;;;;;11.09;50.63;93432.09;2044648;70;20154;-85
2021/10/26 09:06:07;;;;;;;19.02;10.25;;;;;;;11.49;52.33;93436.97;2044888;70;20234;-81
2021/10/26 09:08:35;;;;;;;15.85;9.32;;;;;;;11.71;50.45;93432.13;2044533;70;20158;-76
2021/10/26 09:11:25;;;;;;;13.75;8.73;;;;;;;12.08;48.07;93432.53;2044787;70;20238;-78
2021/10/26 09:17:26;;;;;;;8.25;5.65;;;;;;;11.94;45.26;93421.03;2045333;70;20243;-75
2021/10/26 09:20:30;;;;;;;8.65;5.57;;;;;;;13.16;45.83;93421.81;2044715;70;20158;-81
2021/10/26 09:23:00;;;;;;;8.77;5.72;;;;;;;12.84;45.90;93407.09;2045285;70;20166;-80
2021/10/26 09:25:38;;;;;;;8.07;6.10;;;;;;;12.68;45.24;93409.63;2044602;70;20143;-81
2021/10/26 09:28:11;;;;;;;8.80;5.68;;;;;;;12.49;43.31;93400.59;2044751;70;20250;-78
2021/10/26 09:30:37;;;;;;;;;;;;;;;13.56;43.42;93403.06;2045439;70;20174;-79
2021/10/26 09:33:07;;;;;;;9.35;5.90;;;;;;;13.85;44.05;93402.69;2044563;70;20047;-80
2021/10/26 09:35:33;;;;;;;10.00;6.70;;;;;;;13.16;43.23;93399.94;2045170;70;20158;-77
2021/10/26 09:37:59;;;;;;;12.73;5.78;;;;;;;13.29;42.83;93395.81;2044516;70;20139;-81
2021/10/26 09:40:43;;;;;;;11.05;6.82;;;;;;;12.56;43.72;93397.56;2045035;70;20146;-76
2021/10/26 09:43:11;;;;;;;8.93;6.05;;;;;;;13.19;43.94;93395.91;2044920;70;20189;-84
2021/10/26 09:45:38;;;;;;;10.63;6.60;;;;;;;13.88;43.04;93387.31;2044855;70;20150;-81
2021/10/26 09:48:08;;;;;;;10.10;5.70;;;;;;;14.86;41.24;93376.69;2044726;70;20139;-80
2021/10/26 09:50:34;;;;;;;8.02;5.03;;;;;;;13.99;41.98;93384.47;2045354;70;20139;-77
2021/10/26 09:53:09;;;;;;;10.15;5.78;;;;;;;14.76;39.42;93387.47;2045163;70;20622;-76
2021/10/26 09:55:39;;;;;;;12.80;6.20;;;;;;;14.42;39.28;93378.44;2045295;70;20151;-78
2021/10/26 09:58:10;;;;;;;10.95;5.10;;;;;;;14.45;39.20;93385.69;2045056;70;20211;-75
2021/10/26 10:00:39;;;;;;;7.10;4.55;;;;;;;14.84;38.18;93390.00;2045164;70;20169;-75
2021/10/26 10:03:09;;;;;;;7.28;4.90;;;;;;;15.37;37.91;93384.41;2045240;70;20177;-84
2021/10/26 10:05:41;;;;;;;8.50;5.20;;;;;;;16.64;36.35;93380.28;2045301;70;20523;-87
2021/10/26 10:08:30;;;;;;;6.30;4.43;;;;;;;15.45;37.04;93379.16;2045492;70;20201;-82
2021/10/26 10:11:14;;;;;;;8.60;4.85;;;;;;;17.20;35.89;93373.03;2045924;70;20202;-83
2021/10/26 10:13:42;;;;;;;5.30;3.65;;;;;;;16.47;36.01;93378.75;2044765;70;20146;-82
2021/10/26 10:16:20;;;;;;;6.28;4.40;;;;;;;16.96;36.26;93376.22;2045342;70;20147;-80
2021/10/26 10:18:46;;;;;;;9.77;6.22;;;;;;;17.51;35.99;93381.63;2045460;70;20147;-87
2021/10/26 10:21:14;;;;;;;9.88;5.15;;;;;;;17.40;35.88;93376.81;2046097;70;20533;-83
2021/10/26 10:23:44;;;;;;;6.38;4.22;;;;;;;16.84;36.59;93372.78;2046169;70;20155;-80
2021/10/26 10:26:13;;;;;;;8.02;4.43;;;;;;;18.13;35.02;93373.69;2045515;70;20511;-75
2021/10/26 10:28:44;;;;;;;6.60;3.80;;;;;;;17.20;34.97;93370.94;2045689;70;20154;-77
2021/10/26 10:31:14;;;;;;;4.85;4.07;;;;;;;18.62;34.07;93361.53;2045670;70;20261;-82
2021/10/26 10:33:42;;;;;;;6.65;4.25;;;;;;;19.71;31.81;93369.41;2045392;70;20162;-78
2021/10/26 10:36:09;;;;;;;5.65;3.90;;;;;;;19.55;31.07;93367.38;2045521;70;20143;-86
2021/10/26 10:38:36;;;;;;;5.88;3.70;;;;;;;19.10;31.89;93367.75;2045745;70;20234;-80
2021/10/26 10:41:26;;;;;;;6.95;3.83;;;;;;;17.28;33.54;93362.03;2045897;70;20162;-83
2021/10/26 10:43:54;;;;;;;5.28;4.20;;;;;;;18.45;33.73;93365.06;2045921;70;20178;-79
2021/10/26 10:46:43;;;;;;;9.02;4.15;;;;;;;17.77;34.37;93353.63;2045698;70;20645;-79
2021/10/26 10:49:23;;;;;;;5.53;3.00;;;;;;;17.01;33.70;93355.13;2045309;70;20202;-81
2021/10/26 10:51:56;;;;;;;5.45;2.75;;;;;;;17.01;34.26;93348.69;2045557;70;20238;-84
2021/10/26 10:54:38;;;;;;;5.95;3.10;;;;;;;17.44;34.58;93344.97;2045578;70;20206;-82
2021/10/26 10:57:30;;;;;;;2.60;2.00;;;;;;;15.81;33.26;93337.06;2045668;70;20131;-80
2021/10/26 10:59:58;;;;;;;3.60;2.35;;;;;;;15.08;35.73;93345.25;2045643;70;20146;-78
2021/10/26 11:02:34;;;;;;;4.35;2.40;;;;;;;15.80;35.11;93344.84;2045689;70;20591;-87
2021/10/26 11:05:01;;;;;;;3.65;2.33;;;;;;;15.67;35.67;93342.75;2045632;70;20615;-82
2021/10/26 11:07:42;;;;;;;4.70;2.65;;;;;;;14.48;36.29;93342.00;2045401;70;20677;-78
2021/10/26 11:10:19;;;;;;;6.22;2.70;;;;;;;14.55;36.06;93348.72;2045697;70;20178;-76
2021/10/26 11:12:46;;;;;;;9.10;3.80;;;;;;;14.94;36.20;93336.72;2045605;70;20634;-76
2021/10/26 11:15:23;;;;;;;8.60;4.50;;;;;;;14.59;36.62;93336.91;2045929;70;20234;-80
2021/10/26 11:17:51;;;;;;;6.10;3.53;;;;;;;15.01;37.29;93335.69;2045148;70;20142;-76
2021/10/26 11:20:29;;;;;;;3.97;3.03;;;;;;;15.07;37.62;93338.09;2045513;70;20575;-76
2021/10/26 11:23:02;;;;;;;5.05;3.00;;;;;;;15.22;37.35;93334.69;2045516;70;20151;-76
2021/10/26 11:25:31;;;;;;;6.82;4.22;;;;;;;14.67;37.33;93338.09;2045482;70;20139;-78
2021/10/26 11:27:58;;;;;;;5.50;4.07;;;;;;;15.19;37.52;93333.81;2045504;70;20150;-84
2021/10/26 11:30:27;;;;;;;4.97;3.22;;;;;;;15.11;37.71;93336.22;2045407;70;20154;-77
2021/10/26 11:33:15;;;;;;;6.32;3.58;;;;;;;14.60;37.66;93327.03;2045402;70;20150;-77
2021/10/26 11:36:07;;;;;;;3.05;2.38;;;;;;;14.67;38.66;93334.53;2044990;70;20159;-82
2021/10/26 11:38:51;;;;;;;3.35;2.40;;;;;;;14.87;38.14;93338.47;2045145;70;20650;-78
2021/10/26 11:41:21;;;;;;;;;;;;;;;14.73;39.16;93334.84;2045207;70;20595;-73
2021/10/26 11:43:54;;;;;;;3.35;2.70;;;;;;;14.37;38.61;93336.34;2044698;70;20061;-75
2021/10/26 11:46:25;;;;;;;3.15;2.40;;;;;;;14.58;39.30;93335.44;2043668;70;20577;-76
2021/10/26 11:48:56;;;;;;;6.10;3.00;;;;;;;14.31;38.62;93330.34;2041224;70;20586;-77
2021/10/26 11:51:27;;;;;;;5.40;3.08;;;;;;;13.64;40.33;93325.06;2042000;70;20159;-74
2021/10/26 11:53:57;;;;;;;6.80;3.50;;;;;;;13.60;40.67;93324.84;2042144;70;20226;-74
2021/10/26 11:56:36;;;;;;;4.72;3.15;;;;;;;13.46;41.35;93324.72;2042066;70;20154;-82
2021/10/26 11:59:22;;;;;;;6.25;3.10;;;;;;;12.88;42.27;93321.88;2041343;70;20151;-84
2021/10/26 12:01:57;;;;;;;5.72;3.58;;;;;;;13.46;42.10;93315.50;2041247;70;20143;-74
2021/10/26 12:04:30;;;;;;;7.45;3.60;;;;;;;13.87;41.73;93315.06;2041847;70;20226;-82